Google Maps JavaScript API Example
Pilot Flight Report # 93029 Submitted by : AST775 on 2019-06-09
Date: 2019-06-09Aircraft: Howard 500
Flight No.: Not AvailableDistance (Nm): 334.52
Departure: KMCO - Orlando InternationalDestination: KNPA - Pensacola NAS
 TimeFuelWeightSpeeds  
Out (Taxi)2023Z6090 lbs30391 lbs Flight RulesVFR
Off (Takeoff)2025Z 30381 lbs86 ktsFlight Level12500
On (Landing)2135Z 27339 lbs96 ktsVSTD-147 ft/min
In (Ramp)2135Z3036 lbs27339 lbs ZFW24300 lbs
Flight1.20  -  1:103048 lbs  Pax0
Block1.20  -  1:123054 lbs  Cargo0
Departure WeatherKMCO 222023Z 08614KT 53SM FEW036 28/17 A3009
Destination WeatherKNPA 222135Z 14206KT 43SM SKC 27/23 A3006
Flight Commentsjune leg 12 KMCO-KNPA